LTBU/TEQ METAR and TAF weather

Enter ICAO airport designator
Station Type Date Time Source
LTBU METAR 2018/12/11 21:50 UTC NOAA

LTBU 112150Z 36011KT 9999 SCT040 BKN100 04/03 Q1013


Station Type Date Time Source
LTBU Decoded METAR 2018/12/11 21:50 UTC NOAA

Corlu, Turkey (LTBU) 41-08N 027-55E
Dec 11, 2018 - 04:50 PM EST / 2018.12.11 2150 UTC
Wind: from the N (360 degrees) at 13 MPH (11 KT):0
Visibility: greater than 7 mile(s):0
Sky conditions: mostly cloudy
Temperature: 39 F (4 C)
Dew Point: 37 F (3 C)
Relative Humidity: 93%
Pressure (altimeter): 29.91 in. Hg (1013 hPa)
ob: LTBU 112150Z 36011KT 9999 SCT040 BKN100 04/03 Q1013
cycle: 22

Station Type Date Time Source
LTBU TAF 2018/12/11 18:03 UTC NOAA

TAF LTBU 111640Z 1118/1218 VRB02KT 9999 SCT035 BKN090
BECMG 1121/1124 01012KT
BECMG 1205/1209 31012KT CAVOK
BECMG 1215/1218 25008KT


Example: see airport list